createdAt,value
2022-11-28T00:01:44.628Z,10.38
2022-11-28T00:04:13.670Z,9.60
2022-11-28T00:06:48.247Z,10.23
2022-11-28T00:09:18.119Z,9.75
2022-11-28T00:11:47.358Z,10.10
2022-11-28T00:14:16.471Z,8.80
2022-11-28T00:16:44.572Z,11.80
2022-11-28T00:19:13.092Z,9.65
2022-11-28T00:21:41.755Z,10.95
2022-11-28T00:24:10.864Z,11.00
2022-11-28T00:26:41.229Z,10.07
2022-11-28T00:29:10.325Z,11.10
2022-11-28T00:31:43.456Z,9.68
2022-11-28T00:34:13.263Z,10.60
2022-11-28T00:36:41.272Z,10.23
2022-11-28T00:39:09.015Z,9.27
2022-11-28T00:41:36.800Z,10.27
2022-11-28T00:44:04.521Z,10.00
2022-11-28T00:46:32.177Z,10.65
2022-11-28T00:49:00.420Z,10.10
2022-11-28T00:51:33.598Z,8.20
2022-11-28T00:54:03.442Z,8.38
2022-11-28T00:56:37.463Z,8.43
2022-11-28T00:59:05.475Z,7.90
2022-11-28T01:01:36.059Z,8.48
2022-11-28T01:04:06.487Z,7.12
2022-11-28T01:06:39.937Z,9.38
2022-11-28T01:09:11.934Z,8.50
2022-11-28T01:11:41.375Z,8.57
2022-11-28T01:14:10.546Z,7.95
2022-11-28T01:16:38.832Z,8.30
2022-11-28T01:19:07.419Z,7.55
2022-11-28T01:21:35.940Z,7.07
2022-11-28T01:24:03.886Z,7.07
2022-11-28T01:26:31.923Z,7.47
2022-11-28T01:29:01.382Z,7.70
2022-11-28T01:31:30.369Z,8.05
2022-11-28T01:33:59.311Z,8.02
2022-11-28T01:36:28.213Z,8.95
2022-11-28T01:38:56.211Z,8.40
2022-11-28T01:41:26.857Z,7.68
2022-11-28T01:44:27.062Z,7.37
2022-11-28T01:46:54.841Z,8.25
2022-11-28T01:49:38.636Z,7.65
2022-11-28T01:52:13.213Z,7.10
2022-11-28T01:54:45.309Z,7.80
2022-11-28T01:57:17.927Z,7.57
2022-11-28T01:59:57.281Z,7.47
2022-11-28T02:02:33.535Z,8.23
2022-11-28T02:05:01.835Z,7.80
2022-11-28T02:07:29.577Z,7.97
2022-11-28T02:09:57.809Z,9.13
2022-11-28T02:12:56.501Z,9.50
2022-11-28T02:15:37.752Z,8.85
2022-11-28T02:18:11.160Z,9.50
2022-11-28T02:21:14.850Z,8.88
2022-11-28T02:23:54.770Z,8.80
2022-11-28T02:26:40.924Z,9.68
2022-11-28T02:29:08.472Z,8.48
2022-11-28T02:32:02.572Z,9.00
2022-11-28T02:34:54.980Z,8.93
2022-11-28T02:37:45.731Z,10.20
2022-11-28T02:40:23.843Z,9.63
2022-11-28T02:43:15.312Z,9.95
2022-11-28T02:46:03.967Z,9.88
2022-11-28T02:48:52.616Z,9.00
2022-11-28T02:51:32.561Z,10.23
2022-11-28T02:54:02.534Z,9.38
2022-11-28T02:56:30.255Z,9.95
2022-11-28T02:58:57.978Z,10.85
2022-11-28T03:01:32.190Z,9.48
2022-11-28T03:04:08.037Z,9.00
2022-11-28T03:07:10.009Z,10.30
2022-11-28T03:10:07.076Z,9.85
2022-11-28T03:12:53.323Z,9.85
2022-11-28T03:15:33.484Z,8.93
2022-11-28T03:18:16.932Z,9.65
2022-11-28T03:21:15.271Z,9.95
2022-11-28T03:24:12.157Z,10.18
2022-11-28T03:26:49.281Z,10.57
2022-11-28T03:29:23.319Z,9.38
2022-11-28T03:31:59.471Z,9.77
2022-11-28T03:34:34.035Z,10.68
2022-11-28T03:37:06.490Z,10.15
2022-11-28T03:39:39.420Z,9.95
2022-11-28T03:42:18.932Z,10.02
2022-11-28T03:44:53.746Z,9.75
2022-11-28T03:47:23.240Z,10.48
2022-11-28T03:49:54.219Z,9.70
2022-11-28T03:52:30.815Z,10.60
2022-11-28T03:55:03.155Z,10.30
2022-11-28T03:57:46.509Z,10.20
2022-11-28T04:00:15.096Z,9.07
2022-11-28T04:02:58.005Z,10.20
2022-11-28T04:05:48.893Z,8.25
2022-11-28T04:08:21.851Z,8.48
2022-11-28T04:11:09.784Z,7.57
2022-11-28T04:14:01.716Z,7.55
2022-11-28T04:16:55.894Z,7.68
2022-11-28T04:19:31.926Z,7.40
2022-11-28T04:22:11.787Z,8.13
2022-11-28T04:24:46.466Z,7.12
2022-11-28T04:27:19.940Z,7.80
2022-11-28T04:29:52.067Z,7.05
2022-11-28T04:32:21.720Z,7.47
2022-11-28T04:34:54.746Z,7.45
2022-11-28T04:37:24.261Z,7.85
2022-11-28T04:39:53.582Z,7.78
2022-11-28T04:42:36.574Z,8.70
2022-11-28T04:45:17.339Z,6.80
2022-11-28T04:47:46.544Z,7.18
2022-11-28T04:50:14.679Z,7.57
2022-11-28T04:52:45.206Z,8.57
2022-11-28T04:55:35.922Z,8.32
2022-11-28T04:58:09.416Z,9.05
2022-11-28T05:00:39.369Z,8.77
2022-11-28T05:03:08.635Z,9.02
2022-11-28T05:05:50.660Z,9.95
2022-11-28T05:08:19.666Z,8.20
2022-11-28T05:10:47.958Z,8.93
2022-11-28T05:13:15.590Z,10.15
2022-11-28T05:15:43.247Z,9.10
2022-11-28T05:18:10.970Z,8.45
2022-11-28T05:20:40.239Z,8.23
2022-11-28T05:23:08.088Z,7.50
2022-11-28T05:25:35.749Z,8.48
2022-11-28T05:28:03.401Z,8.95
2022-11-28T05:30:31.127Z,8.63
2022-11-28T05:33:00.372Z,8.20
2022-11-28T05:35:28.177Z,8.00
2022-11-28T05:37:55.857Z,8.68
2022-11-28T05:40:23.444Z,8.20
2022-11-28T05:42:51.215Z,9.57
2022-11-28T05:45:18.905Z,9.13
2022-11-28T05:47:46.571Z,9.63
2022-11-28T05:50:14.343Z,8.30
2022-11-28T05:52:42.052Z,8.32
2022-11-28T05:55:10.281Z,8.63
2022-11-28T05:57:37.963Z,8.38
2022-11-28T06:00:06.121Z,9.05
2022-11-28T06:02:36.924Z,8.13
2022-11-28T06:05:27.243Z,7.53
2022-11-28T06:07:52.539Z,7.43
2022-11-28T06:10:20.466Z,8.07
2022-11-28T06:12:48.130Z,9.18
2022-11-28T06:15:16.109Z,9.45
2022-11-28T06:17:43.772Z,8.85
2022-11-28T06:20:11.660Z,9.35
2022-11-28T06:22:39.262Z,10.20
2022-11-28T06:25:07.125Z,9.85
2022-11-28T06:27:37.053Z,9.05
2022-11-28T06:30:05.469Z,10.25
2022-11-28T06:32:33.228Z,9.40
2022-11-28T06:35:00.907Z,9.88
2022-11-28T06:37:29.428Z,9.57
2022-11-28T06:39:57.123Z,9.48
2022-11-28T06:42:24.739Z,9.75
2022-11-28T06:44:52.426Z,9.32
2022-11-28T06:47:20.055Z,10.23
2022-11-28T06:49:49.833Z,10.25
2022-11-28T06:52:17.460Z,10.50
2022-11-28T06:54:45.797Z,9.77
2022-11-28T06:57:13.779Z,8.68
2022-11-28T06:59:41.901Z,9.70
2022-11-28T07:02:12.209Z,9.52
2022-11-28T07:04:39.852Z,9.55
2022-11-28T07:07:07.498Z,9.00
2022-11-28T07:09:35.236Z,10.20
2022-11-28T07:12:03.097Z,9.68
2022-11-28T07:14:34.253Z,10.27
2022-11-28T07:17:02.318Z,11.07
2022-11-28T07:19:30.022Z,9.07
2022-11-28T07:21:57.668Z,9.88
2022-11-28T07:24:25.613Z,8.48
2022-11-28T07:26:53.269Z,8.80
2022-11-28T07:29:21.000Z,8.77
2022-11-28T07:31:48.867Z,9.38
2022-11-28T07:34:16.514Z,8.38
2022-11-28T07:36:44.191Z,9.35
2022-11-28T07:39:15.723Z,9.15
2022-11-28T07:41:43.320Z,8.68
2022-11-28T07:44:12.522Z,8.90
2022-11-28T07:46:40.444Z,8.88
2022-11-28T07:49:08.184Z,8.85
2022-11-28T07:51:35.971Z,8.90
2022-11-28T07:54:04.762Z,8.35
2022-11-28T07:57:04.665Z,8.35
2022-11-28T07:59:23.139Z,8.75
2022-11-28T08:01:50.924Z,8.98
2022-11-28T08:04:18.607Z,8.88
2022-11-28T08:06:46.322Z,9.25
2022-11-28T08:09:13.927Z,8.98
2022-11-28T08:11:42.302Z,9.18
2022-11-28T08:14:10.466Z,8.77
2022-11-28T08:16:38.187Z,8.35
2022-11-28T08:19:05.971Z,7.93
2022-11-28T08:21:34.431Z,9.30
2022-11-28T08:24:03.350Z,9.43
2022-11-28T08:26:32.890Z,8.95
2022-11-28T08:29:02.407Z,8.63
2022-11-28T08:31:36.811Z,8.07
2022-11-28T08:34:07.560Z,8.68
2022-11-28T08:36:35.562Z,7.57
2022-11-28T08:41:53.588Z,8.40
2022-11-28T08:44:21.278Z,8.55
2022-11-28T08:46:48.953Z,8.45
2022-11-28T08:49:17.177Z,9.10
2022-11-28T08:51:45.000Z,8.90
2022-11-28T08:54:12.814Z,8.80
2022-11-28T08:56:40.639Z,8.18
2022-11-28T08:59:08.456Z,8.32
2022-11-28T09:01:36.224Z,9.18
2022-11-28T09:04:05.386Z,8.93
2022-11-28T09:06:33.177Z,9.75
2022-11-28T09:09:00.813Z,9.55
2022-11-28T09:11:28.471Z,9.82
2022-11-28T09:13:56.879Z,8.82
2022-11-28T09:16:24.676Z,10.05
2022-11-28T09:18:52.315Z,8.93
2022-11-28T09:21:20.133Z,9.27
2022-11-28T09:23:48.003Z,9.57
2022-11-28T09:26:20.614Z,9.15
2022-11-28T09:28:48.759Z,9.18
2022-11-28T09:31:18.605Z,9.90
2022-11-28T09:33:47.525Z,10.15
2022-11-28T09:36:18.173Z,11.45
2022-11-28T09:38:46.231Z,10.70
2022-11-28T09:41:40.230Z,10.43
2022-11-28T09:44:36.231Z,9.88
2022-11-28T09:47:09.979Z,9.40
2022-11-28T09:50:11.682Z,10.00
2022-11-28T09:52:50.459Z,10.30
2022-11-28T09:55:36.616Z,9.68
2022-11-28T09:58:17.183Z,9.55
2022-11-28T10:01:02.336Z,9.10
2022-11-28T10:03:50.210Z,9.70
2022-11-28T10:06:35.138Z,10.52
2022-11-28T10:09:16.829Z,10.70
2022-11-28T10:12:16.776Z,9.75
2022-11-28T10:14:53.568Z,9.35
2022-11-28T10:17:54.597Z,9.43
2022-11-28T10:20:26.673Z,9.20
2022-11-28T10:23:03.884Z,7.87
2022-11-28T10:25:50.650Z,8.10
2022-11-28T10:28:27.321Z,8.80
2022-11-28T10:31:08.218Z,10.95
2022-11-28T10:33:55.092Z,8.55
2022-11-28T10:36:30.388Z,8.15
2022-11-28T10:38:58.613Z,8.65
2022-11-28T10:41:38.246Z,8.98
2022-11-28T10:44:28.497Z,8.55
2022-11-28T10:47:14.448Z,9.05
2022-11-28T10:50:05.760Z,8.43
2022-11-28T10:52:49.694Z,8.65
2022-11-28T10:55:27.844Z,9.00
2022-11-28T10:58:01.506Z,8.40
2022-11-28T11:00:29.347Z,8.80
2022-11-28T11:03:01.478Z,8.70
2022-11-28T11:05:32.480Z,8.75
2022-11-28T11:08:13.947Z,9.27
2022-11-28T11:10:51.981Z,10.50
2022-11-28T11:13:24.657Z,9.18
2022-11-28T11:16:03.433Z,8.48
2022-11-28T11:18:33.219Z,8.70
2022-11-28T11:21:21.020Z,8.43
2022-11-28T11:23:50.003Z,8.57
2022-11-28T11:26:40.447Z,8.35
2022-11-28T11:29:20.648Z,8.35
2022-11-28T11:31:53.400Z,8.55
2022-11-28T11:34:23.779Z,9.10
2022-11-28T11:36:52.731Z,8.45
2022-11-28T11:39:23.378Z,8.45
2022-11-28T11:42:10.620Z,9.27
2022-11-28T11:44:38.895Z,9.25
2022-11-28T11:47:11.431Z,9.50
2022-11-28T11:49:45.296Z,10.02
2022-11-28T11:52:16.143Z,8.35
2022-11-28T11:54:59.054Z,9.50
2022-11-28T11:57:33.971Z,9.23
2022-11-28T12:00:12.093Z,9.48
2022-11-28T12:03:01.171Z,9.30
2022-11-28T12:06:13.227Z,9.73
2022-11-28T12:08:50.435Z,8.98
2022-11-28T12:11:32.629Z,9.02
2022-11-28T12:14:14.982Z,9.35
2022-11-28T12:16:53.757Z,8.80
2022-11-28T12:19:49.095Z,8.68
2022-11-28T12:22:29.535Z,8.70
2022-11-28T12:25:16.237Z,8.82
2022-11-28T12:27:52.619Z,8.38
2022-11-28T12:30:44.614Z,8.57
2022-11-28T12:33:18.741Z,8.13
2022-11-28T12:36:21.537Z,8.75
2022-11-28T12:39:27.097Z,8.70
2022-11-28T12:42:02.696Z,8.50
2022-11-28T12:44:36.550Z,8.68
2022-11-28T12:47:28.856Z,9.20
2022-11-28T12:50:27.429Z,9.10
2022-11-28T12:53:32.276Z,8.60
2022-11-28T12:56:08.861Z,9.15
2022-11-28T12:58:55.110Z,8.75
2022-11-28T13:01:50.820Z,9.88
2022-11-28T13:04:33.651Z,8.63
2022-11-28T13:07:28.920Z,8.35
2022-11-28T13:10:25.753Z,9.05
2022-11-28T13:13:25.873Z,8.77
2022-11-28T13:16:02.255Z,9.07
2022-11-28T13:18:55.910Z,8.45
2022-11-28T13:21:45.221Z,8.38
2022-11-28T13:24:30.214Z,8.38
2022-11-28T13:27:01.484Z,8.52
2022-11-28T13:29:35.028Z,7.62
2022-11-28T13:32:09.034Z,8.90
2022-11-28T13:34:38.629Z,8.75
2022-11-28T13:40:27.810Z,8.25
2022-11-28T13:43:07.917Z,8.07
2022-11-28T13:45:41.433Z,9.25
2022-11-28T13:51:34.259Z,7.85
2022-11-28T13:54:22.944Z,8.88
2022-11-28T13:57:09.265Z,7.90
2022-11-28T13:59:38.004Z,8.48
2022-11-28T14:02:32.610Z,8.00
2022-11-28T14:05:00.607Z,8.20
2022-11-28T14:07:34.449Z,7.65
2022-11-28T14:10:11.072Z,7.90
2022-11-28T14:12:41.677Z,8.70
2022-11-28T14:15:33.259Z,8.43
2022-11-28T14:18:31.669Z,8.32
2022-11-28T14:21:43.388Z,8.07
2022-11-28T14:24:32.642Z,7.97
2022-11-28T14:27:06.674Z,8.50
2022-11-28T14:29:42.442Z,9.05
2022-11-28T14:32:44.862Z,7.97
2022-11-28T14:35:50.132Z,8.07
2022-11-28T14:38:33.301Z,7.55
2022-11-28T14:41:02.243Z,8.68
2022-11-28T14:43:29.971Z,8.50
2022-11-28T14:46:16.350Z,7.82
2022-11-28T14:48:59.154Z,7.87
2022-11-28T14:51:45.452Z,9.15
2022-11-28T14:54:36.684Z,8.13
2022-11-28T14:57:14.562Z,8.77
2022-11-28T14:59:42.348Z,8.70
2022-11-28T15:02:09.965Z,8.25
2022-11-28T15:05:06.705Z,8.80
2022-11-28T15:07:53.224Z,8.80
2022-11-28T15:10:34.981Z,8.20
2022-11-28T15:13:46.983Z,7.75
2022-11-28T15:16:17.829Z,7.22
2022-11-28T15:18:59.173Z,8.75
2022-11-28T15:21:26.859Z,8.32
2022-11-28T15:23:55.616Z,8.63
2022-11-28T15:26:28.950Z,8.35
2022-11-28T15:29:19.429Z,8.20
2022-11-28T15:31:49.172Z,8.15
2022-11-28T15:34:34.227Z,8.15
2022-11-28T15:37:18.399Z,8.35
2022-11-28T15:39:50.789Z,8.80
2022-11-28T15:42:35.044Z,7.93
2022-11-28T15:45:23.397Z,8.73
2022-11-28T15:47:52.906Z,7.78
2022-11-28T15:50:31.876Z,8.73
2022-11-28T15:53:20.577Z,8.55
2022-11-28T15:55:48.682Z,7.90
2022-11-28T15:58:32.171Z,7.85
2022-11-28T16:01:10.075Z,8.27
2022-11-28T16:03:47.279Z,7.70
2022-11-28T16:06:15.325Z,7.80
2022-11-28T16:08:55.979Z,7.72
2022-11-28T16:11:27.091Z,8.45
2022-11-28T16:13:58.494Z,9.13
2022-11-28T16:16:32.868Z,8.15
2022-11-28T16:19:03.611Z,9.27
2022-11-28T16:21:35.341Z,9.52
2022-11-28T16:24:04.524Z,9.32
2022-11-28T16:26:36.018Z,10.85
2022-11-28T16:29:14.615Z,11.25
2022-11-28T16:31:44.994Z,11.50
2022-11-28T16:34:16.285Z,13.48
2022-11-28T16:36:51.457Z,12.82
2022-11-28T16:39:19.268Z,11.27
2022-11-28T16:42:05.651Z,11.75
2022-11-28T16:44:34.746Z,11.15
2022-11-28T16:47:03.178Z,11.07
2022-11-28T16:49:40.612Z,11.63
2022-11-28T16:52:23.358Z,10.25
2022-11-28T16:54:54.869Z,11.77
2022-11-28T16:57:22.737Z,9.88
2022-11-28T16:59:54.644Z,11.35
2022-11-28T17:02:27.928Z,10.38
2022-11-28T17:04:55.754Z,10.82
2022-11-28T17:07:25.351Z,10.85
2022-11-28T17:09:53.089Z,11.05
2022-11-28T17:12:33.486Z,11.50
2022-11-28T17:15:01.594Z,10.90
2022-11-28T17:17:31.492Z,11.25
2022-11-28T17:19:59.226Z,10.77
2022-11-28T17:22:39.074Z,11.77
2022-11-28T17:25:14.671Z,13.35
2022-11-28T17:27:42.272Z,14.15
2022-11-28T17:30:14.677Z,12.63
2022-11-28T17:32:42.319Z,13.38
2022-11-28T17:35:18.082Z,16.92
2022-11-28T17:37:45.764Z,15.98
2022-11-28T17:40:31.918Z,18.30
2022-11-28T17:43:00.151Z,15.93
2022-11-28T17:45:29.990Z,13.10
2022-11-28T17:47:57.742Z,13.13
2022-11-28T17:50:25.439Z,13.40
2022-11-28T17:52:53.247Z,15.15
2022-11-28T17:55:21.752Z,15.55
2022-11-28T17:57:49.514Z,15.27
2022-11-28T18:00:17.965Z,14.75
2022-11-28T18:02:45.744Z,13.20
2022-11-28T18:05:13.379Z,11.07
2022-11-28T18:07:41.488Z,11.30
2022-11-28T18:10:10.060Z,11.10
2022-11-28T18:12:39.274Z,11.48
2022-11-28T18:15:07.272Z,10.77
2022-11-28T18:17:34.929Z,10.48
2022-11-28T18:20:02.766Z,10.77
2022-11-28T18:22:30.379Z,10.95
2022-11-28T18:24:58.013Z,10.02
2022-11-28T18:27:25.783Z,12.32
2022-11-28T18:29:53.523Z,12.02
2022-11-28T18:32:21.317Z,13.98
2022-11-28T18:34:48.950Z,18.05
2022-11-28T18:37:16.753Z,16.92
2022-11-28T18:39:44.585Z,16.05
2022-11-28T18:42:12.397Z,15.73
2022-11-28T18:44:40.007Z,14.77
2022-11-28T18:47:07.890Z,14.50
2022-11-28T18:49:35.561Z,15.52
2022-11-28T18:52:03.306Z,14.13
2022-11-28T18:54:32.287Z,15.00
2022-11-28T18:57:00.724Z,13.20
2022-11-28T18:59:28.403Z,12.85
2022-11-28T19:01:56.200Z,12.18
2022-11-28T19:04:24.033Z,13.10
2022-11-28T19:06:51.873Z,12.30
2022-11-28T19:09:19.939Z,12.77
2022-11-28T19:11:47.968Z,13.32
2022-11-28T19:14:17.917Z,13.55
2022-11-28T19:16:46.206Z,11.80
2022-11-28T19:19:13.913Z,12.13
2022-11-28T19:21:41.627Z,12.80
2022-11-28T19:24:09.623Z,15.15
2022-11-28T19:26:38.456Z,13.02
2022-11-28T19:29:07.536Z,13.38
2022-11-28T19:31:37.849Z,13.10
2022-11-28T19:34:14.958Z,14.87
2022-11-28T19:36:45.296Z,14.87
2022-11-28T19:39:19.031Z,14.60
2022-11-28T19:41:47.931Z,14.85
2022-11-28T19:44:16.543Z,14.15
2022-11-28T19:46:44.714Z,14.90
2022-11-28T19:49:19.171Z,15.00
2022-11-28T19:51:48.294Z,14.75
2022-11-28T19:54:17.651Z,13.70
2022-11-28T19:56:45.358Z,13.77
2022-11-28T19:59:14.183Z,14.35
2022-11-28T20:01:41.917Z,11.52
2022-11-28T20:04:10.468Z,11.45
2022-11-28T20:06:38.204Z,11.02
2022-11-28T20:09:09.913Z,13.27
2022-11-28T20:11:38.899Z,12.95
2022-11-28T20:14:11.004Z,11.60
2022-11-28T20:16:39.218Z,11.90
2022-11-28T20:19:08.170Z,11.30
2022-11-28T20:21:36.581Z,12.00
2022-11-28T20:24:08.401Z,13.23
2022-11-28T20:26:39.601Z,12.50
2022-11-28T20:29:08.557Z,11.82
2022-11-28T20:31:39.135Z,11.35
2022-11-28T20:34:07.614Z,11.20
2022-11-28T20:36:35.357Z,11.32
2022-11-28T20:39:03.142Z,11.30
2022-11-28T20:41:31.356Z,10.98
2022-11-28T20:44:01.808Z,11.20
2022-11-28T20:46:32.017Z,9.73
2022-11-28T20:49:02.629Z,9.25
2022-11-28T20:51:32.469Z,9.07
2022-11-28T20:54:00.822Z,8.45
2022-11-28T20:56:31.536Z,8.60
2022-11-28T20:59:01.752Z,7.60
2022-11-28T21:01:34.426Z,7.20
2022-11-28T21:04:04.287Z,7.72
2022-11-28T21:06:32.087Z,7.40
2022-11-28T21:09:00.308Z,8.00
2022-11-28T21:11:55.543Z,6.43
2022-11-28T21:14:16.687Z,6.97
2022-11-28T21:16:44.844Z,6.65
2022-11-28T21:19:12.900Z,7.35
2022-11-28T21:21:42.045Z,6.25
2022-11-28T21:24:12.678Z,6.57
2022-11-28T21:26:45.370Z,7.07
2022-11-28T21:29:17.879Z,6.93
2022-11-28T21:31:46.176Z,6.30
2022-11-28T21:34:18.656Z,7.30
2022-11-28T21:36:46.755Z,7.25
2022-11-28T21:39:16.987Z,6.03
2022-11-28T21:41:44.781Z,7.43
2022-11-28T21:44:12.478Z,7.00
2022-11-28T21:46:40.294Z,7.35
2022-11-28T21:49:07.919Z,6.97
2022-11-28T21:51:35.562Z,7.37
2022-11-28T21:54:03.773Z,7.43
2022-11-28T21:56:31.424Z,7.95
2022-11-28T21:58:59.050Z,7.72
2022-11-28T22:01:26.824Z,7.05
2022-11-28T22:03:59.032Z,7.20
2022-11-28T22:06:29.682Z,7.45
2022-11-28T22:08:57.804Z,6.75
2022-11-28T22:11:25.868Z,7.80
2022-11-28T22:13:53.967Z,7.30
2022-11-28T22:16:27.746Z,7.15
2022-11-28T22:18:58.687Z,6.85
2022-11-28T22:24:14.476Z,6.68
2022-11-28T22:26:42.140Z,6.87
2022-11-28T22:29:09.863Z,6.95
2022-11-28T22:31:37.820Z,6.65
2022-11-28T22:34:05.527Z,7.07
2022-11-28T22:36:34.557Z,6.55
2022-11-28T22:39:03.668Z,6.80
2022-11-28T22:41:31.345Z,6.12
2022-11-28T22:44:01.633Z,6.15
2022-11-28T22:46:30.211Z,6.25
2022-11-28T22:48:59.499Z,6.30
2022-11-28T22:51:28.332Z,6.15
2022-11-28T22:54:00.810Z,6.93
2022-11-28T22:56:29.552Z,5.70
2022-11-28T22:58:57.196Z,5.80
2022-11-28T23:01:27.742Z,5.75
2022-11-28T23:03:56.289Z,6.00
2022-11-28T23:06:30.121Z,6.00
2022-11-28T23:09:00.174Z,5.10
2022-11-28T23:11:30.712Z,5.43
2022-11-28T23:13:58.383Z,5.00
2022-11-28T23:16:28.538Z,5.95
2022-11-28T23:18:58.923Z,5.57
2022-11-28T23:21:29.446Z,5.78
2022-11-28T23:23:57.059Z,5.53
2022-11-28T23:26:26.521Z,5.35
2022-11-28T23:28:55.590Z,4.57
2022-11-28T23:31:25.883Z,5.97
2022-11-28T23:33:54.005Z,5.70
2022-11-28T23:36:30.699Z,6.18
2022-11-28T23:39:00.531Z,5.20
2022-11-28T23:41:30.217Z,5.05
2022-11-28T23:43:58.846Z,5.03
2022-11-28T23:46:28.117Z,5.22
2022-11-28T23:48:56.034Z,5.05
2022-11-28T23:51:26.216Z,4.50
2022-11-28T23:53:54.931Z,4.55
2022-11-28T23:56:28.631Z,4.72
2022-11-28T23:58:57.851Z,4.12
